Time;durP1;ratioP1;P1;durP2;ratioP2;P2;SDS_P1;SDS_P2;PMS_P1;PMS_P2;Temp;Humidity;BMP_temperature;BMP_pressure;BME280_temperature;BME280_humidity;BME280_pressure;Samples;Min_cycle;Max_cycle;Signal;HPM_P1;HPM_P2
2023/12/22 00:00:16;;;;;;;2.15;0.52;;;9.30;99.90;;;;;;5046867;28;20032;-89
2023/12/22 00:02:42;;;;;;;4.43;0.95;;;9.20;99.90;;;;;;5052112;28;20029;-85
2023/12/22 00:05:08;;;;;;;7.50;1.20;;;9.10;99.90;;;;;;5030280;28;20084;-88
2023/12/22 00:07:34;;;;;;;4.65;1.05;;;9.90;99.90;;;;;;5048283;28;20025;-88
2023/12/22 00:09:59;;;;;;;3.50;1.02;;;9.10;99.90;;;;;;5046458;28;20018;-90
2023/12/22 00:12:25;;;;;;;1.90;0.65;;;9.10;99.90;;;;;;5033938;28;20021;-91
2023/12/22 00:14:51;;;;;;;2.47;0.85;;;9.10;99.90;;;;;;5049471;28;20057;-88
2023/12/22 00:17:16;;;;;;;7.32;1.00;;;9.00;99.90;;;;;;5036358;28;20022;-86
2023/12/22 00:19:42;;;;;;;6.22;1.00;;;9.20;99.90;;;;;;5049264;28;20046;-87
2023/12/22 00:22:08;;;;;;;4.70;0.90;;;8.90;99.90;;;;;;5046363;28;21639;-89
2023/12/22 00:24:34;;;;;;;4.43;1.08;;;8.00;99.90;;;;;;5043974;28;20044;-89
2023/12/22 00:27:00;;;;;;;2.85;0.90;;;8.70;99.90;;;;;;5050682;28;20022;-88
2023/12/22 00:29:28;;;;;;;1.80;0.73;;;8.80;99.90;;;;;;5031527;28;20017;-86
2023/12/22 00:31:54;;;;;;;6.00;1.08;;;;;;;;;;5032739;28;20237;-88
2023/12/22 00:34:22;;;;;;;5.22;1.20;;;8.80;99.90;;;;;;5049855;28;20018;-87
2023/12/22 00:36:48;;;;;;;3.90;0.90;;;;;;;;;;5031742;28;20089;-88
2023/12/22 00:39:14;;;;;;;2.95;1.00;;;8.90;99.90;;;;;;5026730;28;20553;-89
2023/12/22 00:41:40;;;;;;;4.78;1.15;;;11.30;99.90;;;;;;5027195;28;20031;-88
2023/12/22 00:44:06;;;;;;;4.57;1.02;;;;;;;;;;5032883;28;20014;-89
2023/12/22 00:46:32;;;;;;;7.18;2.03;;;8.90;99.90;;;;;;5048816;28;20009;-89
2023/12/22 00:48:58;;;;;;;4.68;0.98;;;;;;;;;;5030737;28;20029;-90
2023/12/22 00:51:24;;;;;;;4.28;1.13;;;8.90;99.90;;;;;;5046193;28;20017;-86
2023/12/22 00:53:50;;;;;;;5.10;1.08;;;;;;;;;;5031727;28;20030;-87
2023/12/22 00:56:16;;;;;;;4.82;1.60;;;;;;;;;;5037336;28;20033;-88
2023/12/22 00:58:45;;;;;;;5.70;1.40;;;;;;;;;;5047827;28;20005;-89
2023/12/22 01:01:11;;;;;;;7.35;1.90;;;8.80;99.90;;;;;;5024146;28;20025;-87
2023/12/22 01:03:37;;;;;;;6.82;1.58;;;8.80;99.90;;;;;;5036107;28;20047;-87
2023/12/22 01:06:03;;;;;;;6.97;1.77;;;;;;;;;;5021774;28;21958;-88
2023/12/22 01:08:28;;;;;;;6.80;1.65;;;8.80;99.90;;;;;;5030904;28;20017;-91
2023/12/22 01:10:54;;;;;;;6.90;1.42;;;12.20;99.90;;;;;;5016107;28;20013;-88
2023/12/22 01:13:20;;;;;;;5.00;1.30;;;;;;;;;;5021653;28;20042;-88
2023/12/22 01:15:46;;;;;;;8.85;1.40;;;9.10;99.90;;;;;;5047844;28;20021;-86
2023/12/22 01:18:12;;;;;;;5.40;1.40;;;11.60;99.90;;;;;;5032257;28;20048;-88
2023/12/22 01:20:38;;;;;;;6.85;2.03;;;;;;;;;;5028174;28;20052;-86
2023/12/22 01:23:04;;;;;;;7.00;1.20;;;9.20;99.90;;;;;;5052931;28;20096;-87
2023/12/22 01:25:29;;;;;;;5.15;1.27;;;9.20;99.90;;;;;;5032025;28;20756;-88
2023/12/22 01:27:55;;;;;;;6.60;1.20;;;9.90;99.90;;;;;;5046621;28;20010;-87
2023/12/22 01:30:21;;;;;;;7.78;1.10;;;;;;;;;;5021787;28;20041;-88
2023/12/22 01:32:47;;;;;;;4.68;1.17;;;9.00;99.90;;;;;;5001618;28;20037;-89
2023/12/22 01:35:14;;;;;;;8.07;1.35;;;;;;;;;;5025549;28;20021;-86
2023/12/22 01:37:39;;;;;;;7.20;1.48;;;8.90;99.90;;;;;;5044445;28;20010;-89
2023/12/22 01:40:06;;;;;;;4.18;1.05;;;8.80;99.90;;;;;;5047817;28;20782;-88
2023/12/22 01:42:32;;;;;;;7.20;1.00;;;;;;;;;;5044392;28;20037;-87
2023/12/22 01:44:58;;;;;;;9.05;1.40;;;9.00;99.90;;;;;;5025867;28;20022;-88
2023/12/22 01:47:24;;;;;;;2.97;1.00;;;9.00;99.90;;;;;;5045316;28;20030;-87
2023/12/22 01:49:51;;;;;;;7.07;1.60;;;;;;;;;;5043616;28;20036;-90
2023/12/22 01:52:17;;;;;;;3.38;1.00;;;8.80;99.90;;;;;;5051727;28;20029;-88
2023/12/22 01:54:43;;;;;;;6.18;1.15;;;10.70;99.90;;;;;;5047102;28;20009;-89
2023/12/22 01:57:12;;;;;;;5.00;0.80;;;8.90;99.90;;;;;;5034384;28;20021;-90
2023/12/22 01:59:37;;;;;;;3.40;0.82;;;10.10;99.90;;;;;;5051490;28;20073;-89
2023/12/22 02:02:04;;;;;;;5.53;0.90;;;8.70;99.90;;;;;;5044134;28;20049;-88
2023/12/22 02:04:33;;;;;;;5.22;1.30;;;8.70;99.90;;;;;;5044267;28;20013;-86
2023/12/22 02:07:01;;;;;;;3.97;1.10;;;8.60;99.90;;;;;;5047656;28;20036;-90
2023/12/22 02:09:27;;;;;;;6.32;1.20;;;8.80;99.90;;;;;;5047315;28;20010;-87
2023/12/22 02:11:53;;;;;;;4.32;1.35;;;9.80;99.90;;;;;;5007848;28;20014;-90
2023/12/22 02:14:20;;;;;;;4.68;1.20;;;9.20;99.90;;;;;;5053348;28;20044;-87
2023/12/22 02:17:09;;;;;;;5.32;1.30;;;8.60;99.90;;;;;;5052587;28;20223;-85
2023/12/22 02:19:38;;;;;;;5.95;1.17;;;8.50;99.90;;;;;;5049290;28;20063;-89
2023/12/22 02:22:06;;;;;;;8.90;1.65;;;8.60;99.90;;;;;;5052537;28;20018;-88
2023/12/22 02:24:33;;;;;;;4.45;1.40;;;8.60;99.90;;;;;;5033012;28;20018;-88
2023/12/22 02:27:30;;;;;;;8.40;1.30;;;8.50;99.90;;;;;;5035054;28;20157;-90
2023/12/22 02:30:21;;;;;;;8.75;1.95;;;8.50;99.90;;;;;;5046147;28;20026;-88
2023/12/22 02:32:50;;;;;;;12.80;2.47;;;8.40;99.90;;;;;;5048412;28;20033;-89
2023/12/22 02:35:20;;;;;;;6.68;1.48;;;8.50;99.90;;;;;;5047541;28;20018;-89
2023/12/22 02:37:47;;;;;;;8.77;1.65;;;8.60;99.90;;;;;;5035608;28;20013;-87
2023/12/22 02:40:15;;;;;;;5.47;1.50;;;8.90;99.90;;;;;;5040500;28;20028;-88
2023/12/22 02:42:41;;;;;;;9.35;1.52;;;8.70;99.90;;;;;;5051212;28;20009;-88
2023/12/22 02:45:17;;;;;;;6.53;1.17;;;9.30;99.90;;;;;;5031254;28;20025;-89
2023/12/22 02:47:43;;;;;;;8.95;1.55;;;8.80;99.90;;;;;;5049809;28;20021;-88
2023/12/22 02:50:09;;;;;;;6.65;1.88;;;9.50;99.90;;;;;;5053637;28;20089;-88
2023/12/22 02:52:35;;;;;;;8.25;1.67;;;8.80;99.90;;;;;;5029889;28;20044;-88
2023/12/22 02:55:02;;;;;;;6.85;1.58;;;8.70;99.90;;;;;;5048341;28;20021;-89
2023/12/22 02:57:28;;;;;;;10.60;2.08;;;8.30;99.90;;;;;;5033320;28;20707;-89
2023/12/22 02:59:54;;;;;;;8.90;1.90;;;8.70;99.90;;;;;;5035874;28;20018;-88
2023/12/22 03:02:20;;;;;;;8.80;1.85;;;9.40;99.90;;;;;;5040920;28;20045;-89
2023/12/22 03:04:46;;;;;;;15.82;2.20;;;9.70;99.90;;;;;;5017938;28;20069;-88
2023/12/22 03:07:13;;;;;;;10.52;2.17;;;8.80;99.90;;;;;;5051673;28;20033;-87
2023/12/22 03:09:39;;;;;;;11.25;2.53;;;8.80;99.90;;;;;;5049571;28;20018;-88
2023/12/22 03:12:07;;;;;;;13.75;2.78;;;9.20;99.90;;;;;;5049486;28;20021;-85
2023/12/22 03:14:33;;;;;;;12.50;2.40;;;8.40;99.90;;;;;;5036820;28;20036;-88
2023/12/22 03:17:03;;;;;;;7.25;1.73;;;8.60;99.90;;;;;;5040577;28;21449;-91
2023/12/22 03:19:51;;;;;;;12.00;2.20;;;8.60;99.90;;;;;;5031701;28;20064;-90
2023/12/22 03:22:17;;;;;;;7.25;1.63;;;8.70;99.90;;;;;;5048318;28;20097;-87
2023/12/22 03:24:44;;;;;;;13.20;1.98;;;10.10;99.90;;;;;;5038095;28;20013;-90
2023/12/22 03:27:10;;;;;;;14.00;2.38;;;8.60;99.90;;;;;;5051262;28;20033;-90
2023/12/22 03:29:38;;;;;;;11.40;1.98;;;8.60;99.90;;;;;;5045002;28;20013;-88
2023/12/22 03:32:07;;;;;;;12.13;2.45;;;8.50;99.90;;;;;;5028838;28;20029;-89
2023/12/22 03:34:33;;;;;;;15.48;2.72;;;8.30;99.90;;;;;;5044354;28;20088;-87
2023/12/22 03:36:59;;;;;;;10.43;2.08;;;8.80;99.90;;;;;;5031610;28;20041;-89
2023/12/22 03:39:24;;;;;;;9.25;1.77;;;8.50;99.90;;;;;;5040638;28;20038;-88
2023/12/22 03:41:50;;;;;;;10.15;2.13;;;8.40;99.90;;;;;;5032902;28;20040;-86
2023/12/22 03:44:16;;;;;;;10.90;2.63;;;8.90;99.90;;;;;;5036809;28;20030;-89
2023/12/22 03:46:42;;;;;;;12.63;2.40;;;9.30;99.90;;;;;;5034548;28;20121;-88
2023/12/22 03:49:08;;;;;;;13.80;3.22;;;9.20;99.90;;;;;;5051649;28;20040;-88
2023/12/22 03:51:34;;;;;;;11.98;2.65;;;8.60;99.90;;;;;;5050885;28;20166;-89
2023/12/22 03:54:00;;;;;;;11.35;2.38;;;8.50;99.90;;;;;;5032342;28;20030;-88
2023/12/22 03:56:26;;;;;;;16.10;2.42;;;8.00;99.90;;;;;;5049717;28;20009;-89
2023/12/22 03:58:51;;;;;;;13.07;2.20;;;9.60;99.90;;;;;;5044276;28;20025;-88
2023/12/22 04:01:17;;;;;;;14.73;2.70;;;8.50;99.90;;;;;;5031753;28;20390;-88
2023/12/22 04:03:43;;;;;;;13.52;3.00;;;9.10;99.90;;;;;;5030226;28;20093;-87
2023/12/22 04:06:09;;;;;;;14.13;2.50;;;8.60;99.90;;;;;;5046370;28;20024;-89
2023/12/22 04:08:34;;;;;;;11.23;3.05;;;8.70;99.90;;;;;;5047406;28;20044;-89
2023/12/22 04:11:00;;;;;;;16.95;3.28;;;9.70;99.90;;;;;;5046330;28;20053;-87
2023/12/22 04:13:26;;;;;;;16.90;3.33;;;10.00;99.90;;;;;;5047292;28;20034;-88
2023/12/22 04:15:51;;;;;;;11.07;2.35;;;8.70;99.90;;;;;;5028503;28;20241;-86
2023/12/22 04:18:17;;;;;;;12.38;2.67;;;8.60;99.90;;;;;;5046556;28;20025;-86
2023/12/22 04:20:43;;;;;;;15.85;2.97;;;8.60;99.90;;;;;;5021781;28;20025;-87
2023/12/22 04:23:08;;;;;;;15.52;2.75;;;9.50;99.90;;;;;;5041671;28;20021;-88
2023/12/22 04:25:34;;;;;;;13.52;3.22;;;9.40;99.90;;;;;;5031434;28;20021;-87
2023/12/22 04:28:00;;;;;;;11.98;2.63;;;8.60;99.90;;;;;;5049291;28;20034;-88
2023/12/22 04:30:27;;;;;;;15.93;2.33;;;8.60;99.90;;;;;;5048061;28;20029;-87
2023/12/22 04:32:53;;;;;;;9.65;2.08;;;8.70;99.90;;;;;;5029126;28;20045;-90
2023/12/22 04:35:19;;;;;;;6.97;1.58;;;8.70;99.90;;;;;;5048226;28;20028;-88
2023/12/22 04:37:44;;;;;;;16.20;2.83;;;8.80;99.90;;;;;;5029803;28;20064;-89
2023/12/22 04:40:11;;;;;;;6.72;1.60;;;9.40;99.90;;;;;;5043267;28;20899;-87
2023/12/22 04:42:36;;;;;;;12.63;2.42;;;8.80;99.90;;;;;;5048041;28;20052;-86
2023/12/22 04:45:02;;;;;;;12.18;3.15;;;8.70;99.90;;;;;;5047274;28;20028;-87
2023/12/22 04:47:28;;;;;;;15.23;2.45;;;8.70;99.90;;;;;;5033031;28;20013;-90
2023/12/22 04:49:54;;;;;;;9.07;2.15;;;8.60;99.90;;;;;;5042821;28;20018;-88
2023/12/22 04:52:20;;;;;;;11.13;2.10;;;8.60;99.90;;;;;;5042154;28;20025;-87
2023/12/22 04:54:46;;;;;;;14.27;2.88;;;9.70;99.90;;;;;;5029081;28;20020;-88
2023/12/22 04:57:12;;;;;;;9.70;1.88;;;8.70;99.90;;;;;;5030390;28;20025;-88
2023/12/22 04:59:38;;;;;;;12.40;2.22;;;8.70;99.90;;;;;;5047483;28;20020;-89
2023/12/22 05:02:03;;;;;;;12.50;2.42;;;8.80;99.90;;;;;;4999439;28;20093;-87
2023/12/22 05:04:29;;;;;;;12.13;2.80;;;8.80;99.90;;;;;;5026145;28;20030;-87
2023/12/22 05:06:55;;;;;;;9.13;2.30;;;8.70;99.90;;;;;;5049564;28;20503;-87
2023/12/22 05:09:21;;;;;;;13.05;2.80;;;8.80;99.90;;;;;;5032099;28;20017;-90
2023/12/22 05:11:46;;;;;;;10.98;2.55;;;8.80;99.90;;;;;;5031038;28;20044;-91
2023/12/22 05:14:12;;;;;;;11.48;2.78;;;8.90;99.90;;;;;;5033647;28;20038;-90
2023/12/22 05:16:38;;;;;;;14.02;3.22;;;8.80;99.90;;;;;;5044186;28;20012;-90
2023/12/22 05:19:04;;;;;;;15.30;3.85;;;10.20;99.90;;;;;;5045029;28;20018;-89
2023/12/22 05:21:30;;;;;;;13.13;2.85;;;8.90;99.90;;;;;;5024955;28;20021;-89
2023/12/22 05:23:56;;;;;;;16.95;3.97;;;8.90;99.90;;;;;;5034234;28;20022;-88
2023/12/22 05:26:22;;;;;;;17.92;2.55;;;9.60;99.90;;;;;;5046768;28;20044;-89
2023/12/22 05:28:51;;;;;;;13.98;3.38;;;9.00;99.90;;;;;;5046899;28;20017;-88
2023/12/22 05:31:17;;;;;;;11.95;2.53;;;10.30;99.90;;;;;;5050924;28;20020;-88
2023/12/22 05:33:43;;;;;;;11.05;2.33;;;8.90;99.90;;;;;;5042859;28;20060;-88
2023/12/22 05:36:09;;;;;;;12.70;3.65;;;9.10;99.90;;;;;;5033330;28;20005;-87
2023/12/22 05:38:38;;;;;;;14.85;2.90;;;8.80;99.90;;;;;;5044601;28;20132;-88
2023/12/22 05:41:06;;;;;;;16.35;2.75;;;9.20;99.90;;;;;;5028846;28;20022;-90
2023/12/22 05:43:33;;;;;;;17.13;2.78;;;8.80;99.90;;;;;;5043529;28;20039;-86
2023/12/22 05:45:59;;;;;;;15.48;3.63;;;9.60;99.90;;;;;;5024890;28;20103;-87
2023/12/22 05:48:28;;;;;;;10.80;2.40;;;9.80;99.90;;;;;;5026890;28;20088;-87
2023/12/22 05:50:57;;;;;;;13.40;2.78;;;9.20;99.90;;;;;;5029898;28;20084;-87
2023/12/22 05:53:23;;;;;;;12.88;3.30;;;8.90;99.90;;;;;;5025102;28;20407;-89
2023/12/22 05:55:49;;;;;;;14.85;2.30;;;8.90;99.90;;;;;;5045098;28;20014;-87
2023/12/22 05:58:15;;;;;;;17.25;3.20;;;9.30;99.90;;;;;;5044649;28;20033;-90
2023/12/22 06:00:41;;;;;;;17.58;2.88;;;8.70;99.90;;;;;;5034755;28;20021;-91
2023/12/22 06:03:06;;;;;;;11.85;2.65;;;8.60;99.90;;;;;;5028074;28;20025;-90
2023/12/22 06:05:33;;;;;;;16.73;3.20;;;8.80;99.90;;;;;;5039475;28;20029;-89
2023/12/22 06:07:58;;;;;;;15.50;2.90;;;7.70;99.90;;;;;;5040255;28;20017;-86
2023/12/22 06:10:24;;;;;;;15.75;3.00;;;8.50;99.90;;;;;;5026012;28;20036;-89
2023/12/22 06:12:50;;;;;;;15.80;2.78;;;8.40;99.90;;;;;;5023343;28;20022;-88
2023/12/22 06:15:16;;;;;;;15.75;2.70;;;10.00;99.90;;;;;;5020142;28;20044;-90
2023/12/22 06:17:45;;;;;;;14.88;3.53;;;9.60;99.90;;;;;;5044230;28;20299;-88
2023/12/22 06:20:11;;;;;;;16.10;3.05;;;9.90;99.90;;;;;;5029061;28;20018;-88
2023/12/22 06:22:37;;;;;;;23.27;3.88;;;8.60;99.90;;;;;;5041433;28;20014;-87
2023/12/22 06:25:07;;;;;;;15.43;3.38;;;8.60;99.90;;;;;;5041112;28;20127;-90
2023/12/22 06:27:33;;;;;;;14.48;2.70;;;8.30;99.90;;;;;;5011023;28;20026;-91
2023/12/22 06:30:02;;;;;;;15.93;2.92;;;8.30;99.90;;;;;;5042101;28;20190;-89
2023/12/22 06:32:28;;;;;;;13.52;2.70;;;8.50;99.90;;;;;;5034621;28;20021;-88
2023/12/22 06:34:54;;;;;;;15.68;3.70;;;9.20;99.90;;;;;;5024987;28;20053;-88
2023/12/22 06:37:20;;;;;;;17.85;3.08;;;9.20;99.90;;;;;;5044293;28;20044;-89
2023/12/22 06:39:46;;;;;;;16.92;3.15;;;8.60;99.90;;;;;;5030247;28;20040;-88
2023/12/22 06:42:14;;;;;;;14.95;2.63;;;9.20;99.90;;;;;;5023091;28;20021;-89
2023/12/22 06:44:43;;;;;;;20.92;3.22;;;9.30;99.90;;;;;;5030872;28;20021;-89
2023/12/22 06:47:09;;;;;;;19.88;2.95;;;9.80;99.90;;;;;;5045135;28;20040;-88
2023/12/22 06:49:34;;;;;;;18.92;3.53;;;9.20;99.90;;;;;;5045191;28;20093;-86
2023/12/22 06:52:01;;;;;;;15.55;2.75;;;9.70;99.90;;;;;;5029909;28;20033;-90
2023/12/22 06:54:27;;;;;;;14.85;3.72;;;8.70;99.90;;;;;;5044542;28;20033;-84
2023/12/22 06:56:53;;;;;;;19.58;3.70;;;9.60;99.90;;;;;;5028629;28;20036;-87
2023/12/22 06:59:19;;;;;;;16.83;3.33;;;8.80;99.90;;;;;;5029752;28;20014;-85
2023/12/22 08:26:57;;;;;;;17.23;2.90;;;9.20;99.90;;;;;;698639;22;20444;-86
2023/12/22 08:29:23;;;;;;;12.07;2.33;;;9.20;99.90;;;;;;5056176;28;20075;-89
2023/12/22 08:31:49;;;;;;;12.45;2.67;;;9.20;99.90;;;;;;5047319;28;20028;-91
2023/12/22 08:34:17;;;;;;;21.27;3.55;;;9.10;99.90;;;;;;5048858;28;20093;-85
2023/12/22 08:36:43;;;;;;;20.33;3.97;;;9.10;99.90;;;;;;5031758;28;20035;-89
2023/12/22 08:39:10;;;;;;;18.40;3.00;;;9.20;99.90;;;;;;5036062;28;20041;-87
2023/12/22 08:41:37;;;;;;;17.95;3.00;;;9.20;99.90;;;;;;5030295;28;20030;-86
2023/12/22 08:44:06;;;;;;;22.88;3.70;;;10.70;99.90;;;;;;5040924;28;20048;-88
2023/12/22 08:46:33;;;;;;;18.20;3.72;;;9.20;99.90;;;;;;5032594;28;20212;-87
2023/12/22 08:48:59;;;;;;;20.95;3.35;;;9.40;99.90;;;;;;5047452;28;20025;-87
2023/12/22 08:51:25;;;;;;;17.23;3.03;;;9.90;99.90;;;;;;5045292;28;20006;-87
2023/12/22 08:53:52;;;;;;;19.90;3.60;;;9.30;99.90;;;;;;5023653;28;20089;-86
2023/12/22 08:56:18;;;;;;;12.25;2.58;;;9.30;99.90;;;;;;5017593;28;20040;-87
2023/12/22 08:58:44;;;;;;;16.63;3.53;;;10.60;99.90;;;;;;5037354;28;20017;-87
2023/12/22 09:01:16;;;;;;;13.73;2.88;;;10.40;99.90;;;;;;5024894;28;20010;-90
2023/12/22 09:03:45;;;;;;;23.02;2.90;;;9.40;99.90;;;;;;5044786;28;20033;-87
2023/12/22 09:06:15;;;;;;;14.35;2.83;;;9.30;99.90;;;;;;5027409;28;20033;-91
2023/12/22 09:08:42;;;;;;;18.27;3.20;;;9.30;99.90;;;;;;5024738;28;20021;-88
2023/12/22 09:11:07;;;;;;;16.35;3.50;;;10.40;99.90;;;;;;5042599;28;20020;-87
2023/12/22 09:13:35;;;;;;;15.98;3.63;;;9.40;99.90;;;;;;5045229;28;20033;-92
2023/12/22 09:16:04;;;;;;;16.42;3.67;;;10.40;99.90;;;;;;5042406;28;20033;-88
2023/12/22 09:18:32;;;;;;;15.02;3.03;;;9.40;99.90;;;;;;5027532;28;20014;-90
2023/12/22 09:21:01;;;;;;;14.48;2.85;;;9.50;99.90;;;;;;5043232;28;20017;-89
2023/12/22 09:23:27;;;;;;;18.60;2.63;;;9.70;99.90;;;;;;5023783;28;20024;-88
2023/12/22 09:25:56;;;;;;;17.10;2.67;;;9.50;99.90;;;;;;5043569;28;20037;-88
2023/12/22 09:28:22;;;;;;;19.10;2.97;;;9.40;99.90;;;;;;5044288;28;20013;-89
2023/12/22 09:31:07;;;;;;;11.60;2.28;;;9.40;99.90;;;;;;5045484;28;20124;-89
2023/12/22 09:33:35;;;;;;;11.52;3.05;;;9.50;99.90;;;;;;5041974;28;20096;-89
2023/12/22 09:36:11;;;;;;;14.00;2.65;;;9.60;99.90;;;;;;5050131;28;20088;-89
2023/12/22 09:38:37;;;;;;;9.23;2.15;;;9.70;99.90;;;;;;5063834;28;20039;-90
2023/12/22 09:41:06;;;;;;;11.82;2.67;;;9.60;99.90;;;;;;5045437;28;20030;-90
2023/12/22 09:43:38;;;;;;;15.68;2.78;;;8.90;99.90;;;;;;5060828;28;20014;-89
2023/12/22 09:46:05;;;;;;;13.35;2.33;;;10.30;99.90;;;;;;5047830;28;20014;-89
2023/12/22 09:48:41;;;;;;;9.77;2.35;;;11.10;99.90;;;;;;5047918;28;20033;-91
2023/12/22 09:51:08;;;;;;;11.45;2.00;;;9.80;99.90;;;;;;5049943;28;20089;-89
2023/12/22 09:53:55;;;;;;;10.23;1.60;;;10.60;99.90;;;;;;5044193;28;20033;-90
2023/12/22 09:56:25;;;;;;;18.67;2.65;;;9.60;99.90;;;;;;5042256;28;20026;-88
2023/12/22 09:58:53;;;;;;;13.27;1.60;;;9.90;99.90;;;;;;5045858;28;20493;-90
2023/12/22 10:01:24;;;;;;;12.50;1.92;;;9.70;99.90;;;;;;5040097;28;20100;-87
2023/12/22 10:03:50;;;;;;;6.13;1.60;;;10.00;99.90;;;;;;5036609;28;20230;-86
2023/12/22 10:06:16;;;;;;;7.93;2.05;;;10.40;99.90;;;;;;5039706;28;20014;-91
2023/12/22 10:08:50;;;;;;;6.40;1.63;;;10.50;99.90;;;;;;5045046;28;20041;-88
2023/12/22 10:11:23;;;;;;;7.03;1.67;;;9.60;99.90;;;;;;5028223;28;20044;-89
2023/12/22 10:13:52;;;;;;;7.85;1.58;;;9.60;99.90;;;;;;5037930;28;20063;-88
2023/12/22 10:16:24;;;;;;;8.10;1.70;;;11.00;99.90;;;;;;5043397;28;20016;-88
2023/12/22 10:18:51;;;;;;;6.75;1.75;;;10.70;99.90;;;;;;5042626;28;20049;-90
2023/12/22 10:21:23;;;;;;;5.82;1.35;;;9.50;99.90;;;;;;5031591;28;20036;-89
2023/12/22 10:23:57;;;;;;;5.25;1.50;;;9.70;99.90;;;;;;5093307;22;20040;-89
2023/12/22 10:26:43;;;;;;;9.20;1.50;;;9.60;99.90;;;;;;5068905;28;20584;-85
2023/12/22 10:29:09;;;;;;;4.35;1.25;;;9.50;99.90;;;;;;5054097;28;20045;-86
2023/12/22 10:31:44;;;;;;;6.20;1.35;;;11.00;99.90;;;;;;5078582;28;20042;-90
2023/12/22 10:34:13;;;;;;;5.53;1.60;;;10.20;99.90;;;;;;5078235;28;20039;-89
2023/12/22 10:36:39;;;;;;;6.60;1.33;;;9.60;99.90;;;;;;5087509;28;20024;-85
2023/12/22 10:39:05;;;;;;;6.43;1.30;;;10.50;99.90;;;;;;5077849;28;20536;-87
2023/12/22 10:41:31;;;;;;;9.60;1.80;;;10.00;99.90;;;;;;5075214;28;20045;-86
2023/12/22 10:44:01;;;;;;;6.70;1.65;;;10.00;99.90;;;;;;5075400;28;20017;-88
2023/12/22 10:46:33;;;;;;;5.60;1.73;;;10.30;99.90;;;;;;5075059;28;20024;-89
2023/12/22 10:49:02;;;;;;;5.95;1.33;;;9.30;99.90;;;;;;5085355;28;20033;-87
2023/12/22 10:51:32;;;;;;;6.93;1.65;;;9.30;99.90;;;;;;5077445;28;20032;-89
2023/12/22 10:53:58;;;;;;;6.03;1.52;;;10.90;99.90;;;;;;5080713;28;20031;-90
2023/12/22 10:56:28;;;;;;;4.22;1.20;;;11.20;99.90;;;;;;5073841;28;20037;-86
2023/12/22 10:58:53;;;;;;;7.28;1.30;;;9.40;99.90;;;;;;5065394;28;20025;-90
2023/12/22 11:01:21;;;;;;;2.80;1.10;;;10.80;99.90;;;;;;5072195;28;20028;-87
2023/12/22 11:03:51;;;;;;;3.75;1.48;;;9.60;99.90;;;;;;5080871;28;20024;-90
2023/12/22 11:06:22;;;;;;;2.30;1.23;;;9.20;99.90;;;;;;5077855;28;20346;-90
2023/12/22 11:08:52;;;;;;;4.30;1.60;;;9.60;99.90;;;;;;5074417;28;20029;-88
2023/12/22 11:11:25;;;;;;;3.30;1.20;;;10.00;99.90;;;;;;5075733;28;20020;-90
2023/12/22 11:13:56;;;;;;;5.68;1.75;;;9.00;99.90;;;;;;5086634;28;20425;-89
2023/12/22 11:16:24;;;;;;;3.80;1.27;;;8.90;99.90;;;;;;5066769;28;20033;-88
2023/12/22 11:18:53;;;;;;;6.07;1.50;;;10.70;99.90;;;;;;5077900;28;20021;-88
2023/12/22 11:21:21;;;;;;;2.00;1.10;;;10.20;99.90;;;;;;5077977;28;20041;-87
2023/12/22 11:23:49;;;;;;;3.33;1.05;;;11.00;99.90;;;;;;5079815;28;20028;-89
2023/12/22 11:26:19;;;;;;;5.35;1.50;;;9.10;99.90;;;;;;5083613;28;20039;-86
2023/12/22 11:28:50;;;;;;;3.17;1.50;;;10.40;99.90;;;;;;5082674;28;20021;-89
2023/12/22 11:31:20;;;;;;;3.30;1.15;;;9.30;99.90;;;;;;5090817;28;20039;-89
2023/12/22 11:33:50;;;;;;;3.38;1.05;;;9.90;99.90;;;;;;5101437;28;20048;-87
2023/12/22 11:36:18;;;;;;;1.67;1.00;;;9.40;99.90;;;;;;5082261;28;20021;-85
2023/12/22 11:38:47;;;;;;;3.65;0.95;;;9.40;99.90;;;;;;5085655;28;20044;-86
2023/12/22 11:41:27;;;;;;;4.18;1.20;;;9.60;99.90;;;;;;5081478;28;20028;-87
2023/12/22 11:43:56;;;;;;;4.03;0.90;;;9.20;99.90;;;;;;5070485;28;20713;-89
2023/12/22 11:46:23;;;;;;;5.72;1.35;;;9.60;99.90;;;;;;5080888;28;20024;-86
2023/12/22 11:48:53;;;;;;;2.25;0.95;;;10.70;99.90;;;;;;5083756;28;20025;-86
2023/12/22 11:51:19;;;;;;;4.80;0.95;;;8.90;99.90;;;;;;5092236;28;20081;-86
2023/12/22 11:53:45;;;;;;;3.22;0.80;;;9.80;99.90;;;;;;5078090;28;20033;-88
2023/12/22 11:56:12;;;;;;;2.13;0.80;;;10.70;99.90;;;;;;5086604;28;20083;-88
2023/12/22 11:58:52;;;;;;;3.00;0.98;;;10.30;99.90;;;;;;5076466;28;20179;-83
2023/12/22 12:01:19;;;;;;;2.42;0.95;;;11.80;99.90;;;;;;5092597;28;20040;-87
2023/12/22 12:03:49;;;;;;;1.83;0.90;;;12.10;99.90;;;;;;5089654;28;20024;-87
2023/12/22 12:06:21;;;;;;;1.63;1.00;;;11.80;99.90;;;;;;5078783;28;20037;-86
2023/12/22 12:08:49;;;;;;;2.45;1.02;;;9.70;99.90;;;;;;5081017;28;20032;-88
2023/12/22 12:11:14;;;;;;;4.22;1.20;;;10.20;99.90;;;;;;5080759;28;20392;-86
2023/12/22 12:13:44;;;;;;;1.65;0.88;;;11.70;99.90;;;;;;5069613;28;20055;-89
2023/12/22 12:16:11;;;;;;;3.20;1.10;;;10.40;99.90;;;;;;5075942;28;20044;-86
2023/12/22 12:18:37;;;;;;;3.78;1.00;;;10.30;99.90;;;;;;5078258;28;20029;-88
2023/12/22 12:21:05;;;;;;;4.55;1.05;;;11.70;99.90;;;;;;5082269;28;20119;-89
2023/12/22 12:23:31;;;;;;;3.35;1.13;;;10.80;99.90;;;;;;5076240;28;20032;-90
2023/12/22 12:25:57;;;;;;;1.67;0.93;;;11.60;99.90;;;;;;5083316;28;20029;-89
2023/12/22 12:28:28;;;;;;;5.22;1.27;;;10.30;99.90;;;;;;5076983;28;20028;-87
2023/12/22 12:31:08;;;;;;;3.45;1.00;;;10.30;99.90;;;;;;5072764;28;20025;-91
2023/12/22 12:33:40;;;;;;;1.48;0.75;;;11.30;99.90;;;;;;5079356;28;20032;-89
2023/12/22 12:36:07;;;;;;;4.18;0.90;;;11.10;99.90;;;;;;5087711;28;20029;-89
2023/12/22 12:38:58;;;;;;;2.10;1.00;;;10.30;99.90;;;;;;5070584;28;20096;-90
2023/12/22 12:41:43;;;;;;;4.82;1.52;;;11.10;99.90;;;;;;5074520;28;20028;-89
2023/12/22 12:44:10;;;;;;;4.57;1.38;;;10.30;99.90;;;;;;5081909;28;20078;-88
2023/12/22 12:46:38;;;;;;;1.73;0.80;;;10.40;99.90;;;;;;5068640;28;20063;-86
2023/12/22 12:49:14;;;;;;;1.13;0.65;;;11.30;99.90;;;;;;5072017;28;20550;-86
2023/12/22 12:51:48;;;;;;;4.47;0.90;;;10.30;99.90;;;;;;5072431;28;20028;-86
2023/12/22 12:54:15;;;;;;;4.13;0.77;;;10.30;99.90;;;;;;5089015;28;20083;-89
2023/12/22 12:56:42;;;;;;;3.60;0.80;;;10.40;99.90;;;;;;5075179;28;20021;-89
2023/12/22 12:59:18;;;;;;;1.23;0.80;;;9.30;99.90;;;;;;5098059;28;20025;-89
2023/12/22 13:01:57;;;;;;;3.47;0.80;;;10.40;99.90;;;;;;5078873;28;20020;-88
2023/12/22 13:04:50;;;;;;;;;;;;;;;;;;;;;
2023/12/22 13:07:45;;;;;;;3.20;0.93;;;10.40;99.90;;;;;;5075605;28;20048;-88
2023/12/22 13:10:21;;;;;;;1.92;0.90;;;10.50;99.90;;;;;;5038374;28;20450;-87
2023/12/22 13:12:58;;;;;;;1.75;0.82;;;11.10;99.90;;;;;;5038088;28;20056;-88
2023/12/22 13:15:27;;;;;;;2.13;0.70;;;10.50;99.90;;;;;;5036701;28;20116;-88
2023/12/22 13:17:53;;;;;;;1.63;0.60;;;10.50;99.90;;;;;;5052110;28;20037;-90
2023/12/22 13:20:19;;;;;;;1.30;0.60;;;10.50;99.90;;;;;;5051056;28;20029;-90
2023/12/22 13:22:47;;;;;;;3.50;1.00;;;10.90;99.90;;;;;;5087155;28;20029;-90
2023/12/22 13:25:13;;;;;;;3.75;0.90;;;12.00;99.90;;;;;;5092970;28;20012;-87
2023/12/22 13:27:51;;;;;;;1.95;0.70;;;9.30;99.90;;;;;;5105995;28;20029;-89
2023/12/22 13:30:38;;;;;;;2.15;0.90;;;11.00;99.90;;;;;;5098624;28;20028;-89
2023/12/22 13:33:06;;;;;;;1.83;0.80;;;10.60;99.90;;;;;;5102410;28;20020;-87
2023/12/22 13:35:36;;;;;;;2.10;1.00;;;10.60;99.90;;;;;;5083094;28;20024;-90
2023/12/22 13:38:06;;;;;;;2.20;0.90;;;11.90;99.90;;;;;;5086093;28;20028;-88
2023/12/22 13:40:32;;;;;;;;;;;10.50;99.90;;;;;;5085927;28;20021;-85
2023/12/22 13:42:58;;;;;;;1.95;0.75;;;10.50;99.90;;;;;;5078335;28;19909;-87
2023/12/22 13:45:27;;;;;;;3.20;0.90;;;10.60;99.90;;;;;;5079286;28;20029;-87
2023/12/22 13:47:56;;;;;;;1.75;0.63;;;10.50;99.90;;;;;;5091334;28;20025;-89
2023/12/22 13:50:25;;;;;;;0.75;0.52;;;9.70;99.90;;;;;;5080917;28;20029;-83
2023/12/22 13:52:51;;;;;;;1.77;0.60;;;10.50;99.90;;;;;;5095307;28;20028;-85
2023/12/22 13:55:18;;;;;;;5.35;1.05;;;10.40;99.90;;;;;;5077231;28;20024;-86
2023/12/22 13:57:45;;;;;;;2.28;1.00;;;9.60;99.90;;;;;;5078516;28;20029;-86
2023/12/22 14:00:20;;;;;;;3.13;1.00;;;10.50;99.90;;;;;;5086282;28;20020;-90
2023/12/22 14:03:04;;;;;;;2.85;1.30;;;12.30;99.90;;;;;;5085250;28;20090;-86
2023/12/22 14:05:35;;;;;;;2.35;0.90;;;11.10;99.90;;;;;;5082476;28;20020;-88
2023/12/22 14:08:07;;;;;;;2.80;0.93;;;10.50;99.90;;;;;;5087179;28;20075;-85
2023/12/22 14:10:56;;;;;;;0.95;0.60;;;10.60;99.90;;;;;;5077816;28;20029;-87
2023/12/22 14:13:29;;;;;;;2.20;0.80;;;10.60;99.90;;;;;;5086663;28;20056;-86
2023/12/22 14:15:57;;;;;;;3.00;0.90;;;10.50;99.90;;;;;;5075258;28;20059;-89
2023/12/22 14:18:25;;;;;;;2.38;0.90;;;9.20;99.90;;;;;;5083545;28;20047;-87
2023/12/22 14:20:53;;;;;;;1.60;0.80;;;10.60;99.90;;;;;;5072954;28;20770;-88
2023/12/22 14:23:19;;;;;;;2.15;0.60;;;10.60;99.90;;;;;;5078428;28;20049;-83
2023/12/22 14:25:52;;;;;;;3.83;1.00;;;10.60;99.90;;;;;;5065527;28;20037;-90